createdAt,value
2017-11-23T00:00:53.575Z,5.76
2017-11-23T00:02:03.031Z,5.74
2017-11-23T00:03:13.013Z,5.67
2017-11-23T00:04:22.987Z,5.74
2017-11-23T00:05:32.979Z,5.73
2017-11-23T00:06:42.967Z,5.72
2017-11-23T00:07:52.680Z,5.67
2017-11-23T00:09:02.665Z,5.7
2017-11-23T00:10:12.640Z,5.61
2017-11-23T00:11:22.604Z,5.69
2017-11-23T00:12:32.048Z,5.72
2017-11-23T00:13:41.765Z,5.69
2017-11-23T00:14:50.949Z,5.67
2017-11-23T00:16:00.391Z,5.69
2017-11-23T00:17:10.448Z,5.69
2017-11-23T00:18:19.886Z,5.7
2017-11-23T00:19:29.855Z,5.69
2017-11-23T00:20:39.301Z,5.69
2017-11-23T00:21:48.751Z,5.7
2017-11-23T00:22:58.219Z,5.7
2017-11-23T00:24:07.937Z,5.64
2017-11-23T00:25:17.931Z,5.69
2017-11-23T00:26:27.650Z,5.74
2017-11-23T00:27:37.629Z,5.7
2017-11-23T00:28:47.351Z,5.72
2017-11-23T00:29:57.060Z,5.62
2017-11-23T00:31:07.030Z,5.64
2017-11-23T00:32:16.729Z,5.59
2017-11-23T00:33:26.702Z,5.61
2017-11-23T00:34:36.441Z,5.62
2017-11-23T00:35:46.402Z,5.72
2017-11-23T00:36:55.843Z,5.56
2017-11-23T00:38:05.302Z,5.56
2017-11-23T00:39:14.763Z,5.55
2017-11-23T00:40:24.719Z,5.59
2017-11-23T00:41:34.425Z,5.56
2017-11-23T00:42:44.138Z,5.51
2017-11-23T00:43:54.105Z,5.55
2017-11-23T00:45:04.315Z,5.52
2017-11-23T00:46:14.296Z,5.49
2017-11-23T00:47:24.000Z,5.49
2017-11-23T00:48:33.434Z,5.47
2017-11-23T00:49:43.601Z,5.38
2017-11-23T00:50:52.774Z,5.41
2017-11-23T00:52:02.741Z,5.37
2017-11-23T00:53:12.709Z,5.37
2017-11-23T00:54:22.187Z,5.38
2017-11-23T00:55:31.901Z,5.41
2017-11-23T00:56:41.342Z,5.46
2017-11-23T00:57:51.317Z,5.54
2017-11-23T00:59:01.021Z,5.51
2017-11-23T01:00:10.992Z,5.56
2017-11-23T01:01:20.946Z,5.59
2017-11-23T01:02:30.655Z,5.64
2017-11-23T01:03:40.358Z,5.64
2017-11-23T01:04:49.801Z,5.65
2017-11-23T01:05:59.520Z,5.69
2017-11-23T01:07:08.964Z,5.67
2017-11-23T01:08:18.683Z,5.61
2017-11-23T01:09:28.374Z,5.65
2017-11-23T01:10:38.085Z,5.65
2017-11-23T01:11:48.281Z,5.65
2017-11-23T01:12:58.253Z,5.7
2017-11-23T01:14:07.958Z,5.62
2017-11-23T01:15:17.682Z,5.59
2017-11-23T01:16:27.692Z,5.56
2017-11-23T01:17:37.398Z,5.7
2017-11-23T01:18:46.831Z,5.62
2017-11-23T01:19:56.287Z,5.72
2017-11-23T01:21:06.261Z,5.65
2017-11-23T01:22:15.965Z,5.69
2017-11-23T01:23:25.422Z,5.7
2017-11-23T01:24:35.667Z,5.8
2017-11-23T01:25:45.626Z,5.67
2017-11-23T01:26:55.605Z,5.74
2017-11-23T01:28:05.632Z,5.73
2017-11-23T01:29:15.342Z,5.74
2017-11-23T01:30:24.804Z,5.72
2017-11-23T01:31:34.780Z,5.79
2017-11-23T01:32:44.502Z,5.72
2017-11-23T01:33:54.187Z,5.72
2017-11-23T01:35:03.641Z,5.77
2017-11-23T01:36:13.352Z,5.77
2017-11-23T01:37:23.322Z,5.8
2017-11-23T01:38:33.028Z,5.88
2017-11-23T01:39:42.999Z,5.9
2017-11-23T01:40:52.965Z,5.97
2017-11-23T01:42:02.685Z,5.95
2017-11-23T01:43:12.690Z,5.95
2017-11-23T01:44:22.675Z,5.95
2017-11-23T01:45:32.648Z,5.98
2017-11-23T01:46:42.611Z,6.01
2017-11-23T01:47:52.309Z,5.99
2017-11-23T01:49:02.290Z,5.99
2017-11-23T01:50:11.464Z,5.95
2017-11-23T01:51:21.434Z,5.9
2017-11-23T01:52:31.134Z,5.98
2017-11-23T01:53:41.109Z,5.95
2017-11-23T01:54:51.073Z,5.95
2017-11-23T01:56:00.790Z,5.97
2017-11-23T01:57:10.781Z,5.94
2017-11-23T01:58:20.241Z,6.06
2017-11-23T01:59:29.954Z,6.06
2017-11-23T02:00:39.393Z,5.95
2017-11-23T02:01:49.372Z,5.95
2017-11-23T02:02:59.087Z,6.05
2017-11-23T02:04:08.792Z,6.09
2017-11-23T02:05:18.762Z,6.06
2017-11-23T02:06:28.472Z,6.1
2017-11-23T02:07:38.442Z,6.06
2017-11-23T02:08:48.405Z,6.05
2017-11-23T02:09:58.369Z,6.09
2017-11-23T02:11:08.340Z,6.12
2017-11-23T02:12:17.796Z,6.06
2017-11-23T02:13:27.772Z,6.09
2017-11-23T02:14:37.499Z,6.16
2017-11-23T02:15:47.201Z,6.09
2017-11-23T02:16:56.644Z,6.05
2017-11-23T02:18:06.609Z,6.02
2017-11-23T02:19:16.567Z,6.01
2017-11-23T02:20:26.526Z,6.06
2017-11-23T02:21:36.491Z,6.07
2017-11-23T02:22:46.197Z,6.12
2017-11-23T02:23:56.171Z,6.05
2017-11-23T02:25:05.345Z,6.09
2017-11-23T02:26:15.302Z,6.1
2017-11-23T02:27:25.285Z,6.15
2017-11-23T02:28:34.995Z,6.13
2017-11-23T02:29:44.482Z,6.13
2017-11-23T02:30:54.475Z,6.19
2017-11-23T02:32:04.204Z,6.17
2017-11-23T02:33:14.178Z,6.28
2017-11-23T02:34:24.137Z,6.15
2017-11-23T02:35:33.843Z,6.2
2017-11-23T02:36:43.549Z,6.15
2017-11-23T02:37:53.572Z,6.1
2017-11-23T02:39:03.018Z,6.16
2017-11-23T02:40:12.720Z,6.16
2017-11-23T02:41:22.721Z,6.15
2017-11-23T02:42:32.173Z,6.19
2017-11-23T02:43:41.614Z,6.16
2017-11-23T02:44:51.083Z,6.12
2017-11-23T02:46:01.059Z,6.22
2017-11-23T02:47:10.779Z,6.17
2017-11-23T02:48:20.508Z,6.17
2017-11-23T02:49:30.488Z,6.15
2017-11-23T02:50:40.477Z,6.2
2017-11-23T02:51:50.445Z,6.12
2017-11-23T02:53:00.150Z,6.07
2017-11-23T02:54:09.862Z,6.13
2017-11-23T02:55:19.825Z,6.07
2017-11-23T02:56:29.534Z,6.07
2017-11-23T02:57:39.509Z,6.1
2017-11-23T02:58:48.966Z,6.1
2017-11-23T02:59:58.411Z,6.07
2017-11-23T03:01:08.375Z,6.1
2017-11-23T03:02:18.098Z,6.09
2017-11-23T03:03:27.276Z,6.07
2017-11-23T03:04:36.996Z,6.05
2017-11-23T03:05:46.447Z,6.05
2017-11-23T03:06:55.893Z,6.12
2017-11-23T03:08:05.600Z,6.06
2017-11-23T03:09:15.295Z,6.1
2017-11-23T03:10:25.273Z,6.06
2017-11-23T03:11:34.986Z,6.07
2017-11-23T03:12:44.975Z,6.1
2017-11-23T03:13:54.697Z,6.06
2017-11-23T03:15:04.142Z,6.13
2017-11-23T03:16:13.866Z,6.09
2017-11-23T03:17:23.305Z,6.15
2017-11-23T03:18:33.006Z,6.25
2017-11-23T03:19:42.957Z,6.15
2017-11-23T03:20:52.658Z,6.19
2017-11-23T03:22:02.627Z,6.29
2017-11-23T03:23:12.329Z,6.32
2017-11-23T03:24:22.034Z,6.36
2017-11-23T03:25:31.739Z,6.25
2017-11-23T03:26:41.444Z,6.35
2017-11-23T03:27:51.425Z,6.36
2017-11-23T03:29:01.417Z,6.29
2017-11-23T03:30:10.894Z,6.43
2017-11-23T03:31:20.632Z,6.41
2017-11-23T03:32:30.089Z,6.46
2017-11-23T03:33:39.551Z,6.54
2017-11-23T03:34:49.272Z,6.52
2017-11-23T03:35:59.242Z,6.54
2017-11-23T03:37:08.946Z,6.56
2017-11-23T03:38:18.650Z,6.56
2017-11-23T03:39:28.342Z,6.72
2017-11-23T03:40:38.050Z,6.71
2017-11-23T03:41:47.758Z,6.82
2017-11-23T03:42:57.752Z,6.87
2017-11-23T03:44:07.734Z,6.86
2017-11-23T03:45:16.907Z,6.9
2017-11-23T03:46:26.629Z,6.85
2017-11-23T03:47:36.581Z,6.85
2017-11-23T03:48:46.024Z,6.8
2017-11-23T03:49:55.481Z,6.85
2017-11-23T03:51:05.473Z,6.86
2017-11-23T03:52:15.173Z,6.86
2017-11-23T03:53:25.142Z,6.92
2017-11-23T03:54:34.847Z,6.89
2017-11-23T03:55:44.811Z,6.83
2017-11-23T03:56:54.781Z,6.85
2017-11-23T03:58:04.488Z,6.92
2017-11-23T03:59:14.486Z,6.83
2017-11-23T04:00:23.947Z,6.9
2017-11-23T04:01:33.660Z,6.86
2017-11-23T04:02:43.618Z,6.9
2017-11-23T04:03:53.595Z,6.87
2017-11-23T04:05:03.577Z,6.82
2017-11-23T04:06:12.762Z,6.77
2017-11-23T04:07:22.727Z,6.87
2017-11-23T04:08:32.445Z,6.77
2017-11-23T04:17:43.484Z,6.53
2017-11-23T04:18:53.182Z,6.6
2017-11-23T04:20:02.875Z,6.53
2017-11-23T04:21:12.572Z,6.5
2017-11-23T04:22:22.014Z,6.52
2017-11-23T04:23:31.714Z,6.46
2017-11-23T04:24:41.442Z,6.41
2017-11-23T04:25:50.904Z,6.31
2017-11-23T04:27:00.353Z,6.36
2017-11-23T04:28:10.316Z,6.22
2017-11-23T04:29:20.015Z,6.29
2017-11-23T04:30:29.460Z,6.28
2017-11-23T04:31:39.428Z,6.26
2017-11-23T04:32:48.867Z,6.13
2017-11-23T04:33:58.841Z,6.17
2017-11-23T04:35:08.807Z,6.12
2017-11-23T04:36:18.769Z,6.05
2017-11-23T04:37:28.470Z,5.99
2017-11-23T04:38:38.440Z,6.02
2017-11-23T04:39:48.404Z,5.83
2017-11-23T04:40:57.314Z,5.94
2017-11-23T04:42:07.017Z,5.9
2017-11-23T04:43:16.724Z,5.83
2017-11-23T04:44:26.688Z,5.87
2017-11-23T04:45:36.408Z,5.87
2017-11-23T04:46:46.110Z,5.8
2017-11-23T04:47:55.813Z,5.88
2017-11-23T04:49:05.767Z,5.87
2017-11-23T04:50:15.503Z,5.77
2017-11-23T04:51:24.945Z,5.8
2017-11-23T04:52:34.393Z,5.69
2017-11-23T04:53:44.107Z,5.7
2017-11-23T04:54:53.805Z,5.62
2017-11-23T04:56:03.510Z,5.58
2017-11-23T04:57:12.956Z,5.58
2017-11-23T04:58:22.935Z,5.61
2017-11-23T04:59:32.920Z,5.61
2017-11-23T05:00:42.888Z,5.7
2017-11-23T05:01:52.589Z,5.72
2017-11-23T05:03:02.033Z,5.64
2017-11-23T05:04:11.994Z,5.55
2017-11-23T05:05:21.953Z,5.56
2017-11-23T05:06:31.138Z,5.55
2017-11-23T05:07:41.108Z,5.58
2017-11-23T05:08:51.078Z,5.55
2017-11-23T05:10:00.765Z,5.61
2017-11-23T05:11:10.744Z,5.54
2017-11-23T05:12:20.725Z,5.55
2017-11-23T05:13:30.684Z,5.49
2017-11-23T05:14:40.387Z,5.59
2017-11-23T05:15:50.089Z,5.54
2017-11-23T05:16:59.794Z,5.62
2017-11-23T05:18:09.755Z,5.59
2017-11-23T05:19:19.191Z,5.72
2017-11-23T05:20:28.644Z,5.59
2017-11-23T05:21:38.352Z,5.72
2017-11-23T05:22:47.799Z,5.65
2017-11-23T05:23:57.240Z,5.74
2017-11-23T05:25:06.958Z,5.69
2017-11-23T05:26:16.933Z,5.69
2017-11-23T05:27:26.625Z,5.72
2017-11-23T05:28:36.317Z,5.65
2017-11-23T05:29:46.023Z,5.67
2017-11-23T05:30:56.005Z,5.67
2017-11-23T05:32:05.705Z,5.69
2017-11-23T05:33:15.431Z,5.69
2017-11-23T05:34:25.395Z,5.72
2017-11-23T05:35:35.113Z,5.65
2017-11-23T05:36:45.086Z,5.59
2017-11-23T05:37:55.056Z,5.59
2017-11-23T05:39:05.025Z,5.62
2017-11-23T05:40:14.748Z,5.58
2017-11-23T05:41:24.724Z,5.61
2017-11-23T05:42:34.712Z,5.65
2017-11-23T05:43:44.677Z,5.55
2017-11-23T05:44:54.639Z,5.51
2017-11-23T05:46:04.596Z,5.47
2017-11-23T05:47:14.302Z,5.54
2017-11-23T05:48:24.005Z,5.4
2017-11-23T05:49:34.000Z,5.36
2017-11-23T05:50:43.719Z,5.4
2017-11-23T05:51:53.695Z,5.44
2017-11-23T05:53:03.399Z,5.38
2017-11-23T05:54:12.848Z,5.41
2017-11-23T05:55:22.551Z,5.4
2017-11-23T05:56:32.264Z,5.4
2017-11-23T05:57:42.229Z,5.4
2017-11-23T05:58:51.945Z,5.44
2017-11-23T06:00:01.681Z,5.36
2017-11-23T06:01:11.644Z,5.36
2017-11-23T06:02:21.367Z,5.37
2017-11-23T06:03:31.070Z,5.47
2017-11-23T06:04:41.051Z,5.37
2017-11-23T06:05:50.777Z,5.46
2017-11-23T06:07:00.479Z,5.46
2017-11-23T06:08:10.439Z,5.49
2017-11-23T06:09:20.153Z,5.59
2017-11-23T06:10:29.602Z,5.54
2017-11-23T06:11:39.565Z,5.54
2017-11-23T06:12:49.541Z,5.64
2017-11-23T06:13:58.988Z,5.59
2017-11-23T06:15:08.974Z,5.64
2017-11-23T06:16:18.952Z,5.7
2017-11-23T06:17:28.916Z,5.7
2017-11-23T06:18:38.605Z,5.67
2017-11-23T06:19:48.041Z,5.67
2017-11-23T06:20:57.977Z,5.69
2017-11-23T06:22:07.675Z,5.79
2017-11-23T06:23:17.379Z,5.69
2017-11-23T06:24:27.083Z,5.79
2017-11-23T06:25:37.064Z,5.77
2017-11-23T06:26:46.808Z,5.8
2017-11-23T06:27:56.771Z,5.74
2017-11-23T06:29:06.222Z,5.83
2017-11-23T06:30:16.222Z,5.73
2017-11-23T06:31:26.192Z,5.77
2017-11-23T06:32:36.400Z,5.73
2017-11-23T06:33:46.129Z,5.72
2017-11-23T06:34:55.835Z,5.72
2017-11-23T06:36:05.829Z,5.69
2017-11-23T06:37:15.844Z,5.7
2017-11-23T06:38:25.579Z,5.8
2017-11-23T06:39:35.547Z,5.83
2017-11-23T06:40:45.242Z,5.9
2017-11-23T06:41:55.249Z,5.88
2017-11-23T06:43:05.227Z,5.88
2017-11-23T06:44:14.940Z,5.83
2017-11-23T06:45:24.688Z,5.83
2017-11-23T06:46:34.435Z,5.87
2017-11-23T06:47:43.891Z,5.8
2017-11-23T06:48:53.605Z,5.79
2017-11-23T06:50:03.348Z,5.9
2017-11-23T06:51:13.555Z,5.87
2017-11-23T06:52:23.534Z,5.88
2017-11-23T06:53:33.508Z,5.94
2017-11-23T06:54:42.950Z,5.95
2017-11-23T06:55:52.393Z,5.92
2017-11-23T06:57:02.136Z,5.97
2017-11-23T06:58:11.857Z,5.98
2017-11-23T06:59:21.589Z,6.01
2017-11-23T07:00:31.569Z,6.07
2017-11-23T07:01:41.062Z,6.01
2017-11-23T07:02:51.020Z,6.06
2017-11-23T07:04:01.000Z,6.06
2017-11-23T07:05:10.984Z,5.95
2017-11-23T07:06:20.454Z,5.94
2017-11-23T07:07:29.914Z,5.95
2017-11-23T07:08:39.919Z,5.95
2017-11-23T07:09:49.630Z,5.98
2017-11-23T07:10:59.633Z,5.94
2017-11-23T07:12:09.621Z,5.92
2017-11-23T07:13:19.607Z,5.92
2017-11-23T07:14:29.598Z,5.9
2017-11-23T07:15:39.603Z,5.94
2017-11-23T07:16:49.610Z,5.97
2017-11-23T07:17:59.093Z,5.91
2017-11-23T07:19:08.806Z,5.97
2017-11-23T07:20:18.780Z,5.98
2017-11-23T07:21:28.511Z,5.81
2017-11-23T07:22:38.484Z,5.88
2017-11-23T07:23:47.937Z,5.92
2017-11-23T07:24:57.387Z,5.91
2017-11-23T07:26:07.169Z,5.9
2017-11-23T07:27:16.882Z,5.98
2017-11-23T07:28:26.922Z,5.97
2017-11-23T07:29:36.375Z,6.16
2017-11-23T07:30:46.101Z,6.15
2017-11-23T07:31:55.869Z,6.15
2017-11-23T07:33:05.853Z,6.12
2017-11-23T07:34:15.859Z,6.2
2017-11-23T07:35:25.838Z,6.25
2017-11-23T07:36:35.843Z,6.29
2017-11-23T07:37:45.670Z,6.31
2017-11-23T07:38:55.172Z,6.41
2017-11-23T07:40:05.177Z,6.62
2017-11-23T07:41:15.143Z,6.6
2017-11-23T07:42:24.856Z,6.72
2017-11-23T07:43:34.591Z,6.82
2017-11-23T07:44:44.052Z,6.82
2017-11-23T07:45:53.783Z,6.85
2017-11-23T07:47:03.805Z,6.97
2017-11-23T07:48:13.558Z,6.92
2017-11-23T07:49:23.293Z,6.95
2017-11-23T07:50:33.031Z,6.95
2017-11-23T07:51:43.036Z,6.96
2017-11-23T07:52:53.038Z,6.96
2017-11-23T07:54:03.027Z,7.01
2017-11-23T07:55:13.005Z,6.97
2017-11-23T07:56:22.780Z,7.03
2017-11-23T07:57:32.511Z,6.97
2017-11-23T07:58:42.254Z,7.04
2017-11-23T07:59:52.275Z,7.13
2017-11-23T08:01:02.267Z,7.05
2017-11-23T08:02:12.041Z,7
2017-11-23T08:03:21.008Z,7.07
2017-11-23T08:04:30.738Z,7.14
2017-11-23T08:05:40.478Z,7.13
2017-11-23T08:06:50.222Z,7.18
2017-11-23T08:08:00.217Z,7.18
2017-11-23T08:09:10.199Z,7.23
2017-11-23T08:10:20.217Z,7.22
2017-11-23T08:11:29.937Z,7.31
2017-11-23T08:12:39.998Z,7.18
2017-11-23T08:13:49.979Z,7.25
2017-11-23T08:14:59.991Z,7.22
2017-11-23T08:16:09.991Z,7.28
2017-11-23T08:17:19.706Z,7.23
2017-11-23T08:18:29.423Z,7.21
2017-11-23T08:19:39.715Z,7.18
2017-11-23T08:20:49.439Z,7.18
2017-11-23T08:21:59.435Z,7.25
2017-11-23T08:23:09.205Z,7.22
2017-11-23T08:24:18.739Z,7.14
2017-11-23T08:25:28.778Z,7.22
2017-11-23T08:26:38.504Z,7.19
2017-11-23T08:27:47.981Z,7.25
2017-11-23T08:28:57.221Z,7.15
2017-11-23T08:30:07.291Z,7.15
2017-11-23T08:31:17.085Z,7.25
2017-11-23T08:32:26.590Z,7.21
2017-11-23T08:33:36.694Z,7.32
2017-11-23T08:34:46.767Z,7.29
2017-11-23T08:35:56.810Z,7.32
2017-11-23T08:37:06.877Z,7.31
2017-11-23T08:38:16.895Z,7.36
2017-11-23T08:39:26.703Z,7.4
2017-11-23T08:40:35.961Z,7.36
2017-11-23T08:41:45.510Z,7.32
2017-11-23T08:42:55.325Z,7.44
2017-11-23T08:44:05.384Z,7.44
2017-11-23T08:45:14.658Z,7.48
2017-11-23T08:46:24.161Z,7.55
2017-11-23T08:47:34.213Z,7.59
2017-11-23T08:48:44.350Z,7.55
2017-11-23T08:49:54.138Z,7.48
2017-11-23T08:51:03.936Z,7.55
2017-11-23T08:52:14.013Z,7.61
2017-11-23T08:53:23.755Z,7.64
2017-11-23T08:54:33.795Z,7.64
2017-11-23T08:55:43.872Z,7.7
2017-11-23T08:56:53.933Z,7.77
2017-11-23T08:58:03.700Z,7.8
2017-11-23T08:59:13.669Z,7.75
2017-11-23T09:00:23.688Z,7.88
2017-11-23T09:01:33.422Z,7.85
2017-11-23T09:02:43.161Z,7.88
2017-11-23T09:03:52.913Z,7.96
2017-11-23T09:05:02.907Z,8.05
2017-11-23T09:06:12.615Z,8.01
2017-11-23T09:07:22.075Z,8.05
2017-11-23T09:08:31.789Z,8.16
2017-11-23T09:09:41.784Z,8.14
2017-11-23T09:10:51.258Z,8.18
2017-11-23T09:12:00.994Z,8.21
2017-11-23T09:13:10.706Z,8.24
2017-11-23T09:14:20.682Z,8.26
2017-11-23T09:15:30.441Z,8.35
2017-11-23T09:16:39.628Z,8.31
2017-11-23T09:17:49.857Z,8.49
2017-11-23T09:18:59.832Z,8.5
2017-11-23T09:20:09.297Z,8.63
2017-11-23T09:21:19.006Z,8.69
2017-11-23T09:22:28.994Z,8.6
2017-11-23T09:23:39.013Z,8.79
2017-11-23T09:24:48.903Z,8.84
2017-11-23T09:25:58.918Z,8.99
2017-11-23T09:27:08.913Z,8.87
2017-11-23T09:28:18.665Z,9.05
2017-11-23T09:29:29.139Z,9.02
2017-11-23T09:30:39.252Z,8.93
2017-11-23T09:31:49.016Z,9.03
2017-11-23T09:32:59.028Z,8.95
2017-11-23T09:34:09.053Z,8.97
2017-11-23T09:35:19.154Z,9.11
2017-11-23T09:36:29.153Z,9.12
2017-11-23T09:37:38.420Z,9.08
2017-11-23T09:38:48.451Z,9.13
2017-11-23T09:39:58.205Z,9.16
2017-11-23T09:41:07.696Z,9.24
2017-11-23T09:42:17.166Z,9.24
2017-11-23T09:43:26.934Z,9.21
2017-11-23T09:44:36.726Z,9.21
2017-11-23T09:45:46.712Z,9.26
2017-11-23T09:46:55.932Z,9.24
2017-11-23T09:48:05.917Z,9.29
2017-11-23T09:49:15.703Z,9.42
2017-11-23T09:50:25.910Z,9.36
2017-11-23T09:51:35.970Z,9.42
2017-11-23T09:52:46.031Z,9.44
2017-11-23T09:53:55.750Z,9.47
2017-11-23T09:55:05.748Z,9.55
2017-11-23T09:56:15.511Z,9.63
2017-11-23T09:57:25.528Z,9.67
2017-11-23T09:58:35.264Z,9.67
2017-11-23T09:59:44.989Z,9.69
2017-11-23T10:00:55.027Z,9.84
2017-11-23T10:02:05.071Z,9.8
2017-11-23T10:03:14.842Z,9.87
2017-11-23T10:04:24.648Z,9.97
2017-11-23T10:05:34.708Z,10.02
2017-11-23T10:06:44.679Z,10.12
2017-11-23T10:07:54.457Z,10.13
2017-11-23T10:09:04.230Z,10.21
2017-11-23T10:10:14.269Z,10.23
2017-11-23T10:11:24.032Z,10.25
2017-11-23T10:12:34.101Z,10.28
2017-11-23T10:13:44.064Z,10.36
2017-11-23T10:14:53.767Z,10.42
2017-11-23T10:16:03.222Z,10.41
2017-11-23T10:17:12.946Z,10.59
2017-11-23T10:18:22.422Z,10.57
2017-11-23T10:19:32.189Z,10.62
2017-11-23T10:20:41.960Z,10.62
2017-11-23T10:21:52.034Z,10.64
2017-11-23T10:23:02.081Z,10.8
2017-11-23T10:24:11.833Z,10.8
2017-11-23T10:25:21.887Z,10.71
2017-11-23T10:26:32.115Z,10.89
2017-11-23T10:27:41.894Z,10.89
2017-11-23T10:28:51.934Z,10.98
2017-11-23T10:30:01.663Z,11.05
2017-11-23T10:31:11.142Z,11.13
2017-11-23T10:32:21.331Z,11.15
2017-11-23T10:33:30.786Z,11.2
2017-11-23T10:34:40.518Z,11.25
2017-11-23T10:35:50.492Z,11.33
2017-11-23T10:36:59.959Z,11.27
2017-11-23T10:38:09.679Z,11.3
2017-11-23T10:39:19.416Z,11.23
2017-11-23T10:40:29.166Z,11.31
2017-11-23T10:41:39.163Z,11.45
2017-11-23T10:42:48.869Z,11.43
2017-11-23T10:43:58.878Z,11.25
2017-11-23T10:45:08.356Z,11.16
2017-11-23T10:46:17.828Z,11.1
2017-11-23T10:47:27.861Z,11.1
2017-11-23T10:48:37.339Z,11.2
2017-11-23T10:49:47.336Z,11.08
2017-11-23T10:50:57.065Z,11.18
2017-11-23T10:52:07.053Z,11.19
2017-11-23T10:53:16.785Z,11.19
2017-11-23T10:54:26.529Z,11.13
2017-11-23T10:55:35.991Z,11.08
2017-11-23T10:56:46.006Z,11.05
2017-11-23T10:57:55.722Z,11.07
2017-11-23T10:59:05.456Z,11.05
2017-11-23T11:00:15.246Z,11
2017-11-23T11:01:25.232Z,10.95
2017-11-23T11:02:34.965Z,11.1
2017-11-23T11:03:44.964Z,11.04
2017-11-23T11:04:54.947Z,10.97
2017-11-23T11:06:04.935Z,11
2017-11-23T11:07:14.678Z,11.02
2017-11-23T11:08:24.673Z,11.07
2017-11-23T11:09:34.150Z,10.97
2017-11-23T11:10:43.874Z,10.97
2017-11-23T11:11:53.854Z,11.04
2017-11-23T11:13:03.313Z,11.08
2017-11-23T11:14:13.061Z,11.12
2017-11-23T11:15:22.813Z,11.18
2017-11-23T11:16:32.536Z,11.16
2017-11-23T11:17:41.999Z,11.25
2017-11-23T11:18:51.979Z,11.22
2017-11-23T11:20:01.963Z,11.27
2017-11-23T11:21:11.704Z,11.31
2017-11-23T11:22:21.468Z,11.34
2017-11-23T11:23:31.696Z,11.37
2017-11-23T11:24:41.413Z,11.43
2017-11-23T11:25:51.422Z,11.43
2017-11-23T11:27:01.433Z,11.43
2017-11-23T11:28:11.164Z,11.4
2017-11-23T11:29:20.368Z,11.45
2017-11-23T11:30:29.861Z,11.44
2017-11-23T11:31:39.582Z,11.43
2017-11-23T11:32:49.566Z,11.43
2017-11-23T11:33:59.059Z,11.37
2017-11-23T11:35:08.812Z,11.33
2017-11-23T11:36:18.425Z,11.25
2017-11-23T11:37:28.152Z,11.27
2017-11-23T11:38:38.138Z,11.31
2017-11-23T11:39:47.592Z,11.25
2017-11-23T11:40:57.053Z,11.27
2017-11-23T11:42:06.776Z,11.22
2017-11-23T11:43:16.794Z,11.27
2017-11-23T11:44:26.790Z,11.35
2017-11-23T11:45:36.806Z,11.27
2017-11-23T11:46:46.261Z,11.35
2017-11-23T11:47:55.989Z,11.25
2017-11-23T11:49:05.461Z,11.34
2017-11-23T11:50:15.452Z,11.34
2017-11-23T11:51:24.909Z,11.31
2017-11-23T11:52:34.901Z,11.37
2017-11-23T11:53:44.645Z,11.35
2017-11-23T11:54:54.389Z,11.34
2017-11-23T11:56:04.158Z,11.38
2017-11-23T11:57:13.623Z,11.38
2017-11-23T11:58:23.632Z,11.34
2017-11-23T11:59:32.857Z,11.4
2017-11-23T12:00:42.861Z,11.43
2017-11-23T12:01:52.847Z,11.45
2017-11-23T12:03:02.587Z,11.55
2017-11-23T12:04:12.331Z,11.52
2017-11-23T12:05:22.351Z,11.58
2017-11-23T12:06:31.818Z,11.49
2017-11-23T12:07:41.267Z,11.63
2017-11-23T12:08:50.993Z,11.63
2017-11-23T12:10:00.991Z,11.63
2017-11-23T12:11:10.727Z,11.73
2017-11-23T12:12:20.500Z,11.74
2017-11-23T12:13:30.228Z,11.7
2017-11-23T12:14:39.964Z,11.74
2017-11-23T12:15:49.447Z,11.7
2017-11-23T12:16:59.186Z,11.73
2017-11-23T12:18:08.926Z,11.83
2017-11-23T12:19:18.375Z,11.73
2017-11-23T12:20:28.341Z,11.73
2017-11-23T12:21:37.785Z,11.74
2017-11-23T12:22:47.235Z,11.73
2017-11-23T12:23:56.692Z,11.71
2017-11-23T12:25:06.730Z,11.74
2017-11-23T12:26:16.454Z,11.73
2017-11-23T12:27:26.157Z,11.68
2017-11-23T12:28:36.139Z,11.73
2017-11-23T12:29:45.327Z,11.77
2017-11-23T12:30:55.341Z,11.76
2017-11-23T12:32:05.023Z,11.77
2017-11-23T12:33:15.020Z,11.73
2017-11-23T12:34:25.016Z,11.73
2017-11-23T12:35:34.729Z,11.68
2017-11-23T12:36:44.459Z,11.65
2017-11-23T12:37:54.171Z,11.76
2017-11-23T12:39:03.886Z,11.8
2017-11-23T12:40:13.348Z,11.83
2017-11-23T12:41:23.120Z,11.76
2017-11-23T12:42:33.109Z,11.83
2017-11-23T12:43:42.818Z,11.78
2017-11-23T12:44:52.540Z,11.81
2017-11-23T12:46:02.544Z,11.8
2017-11-23T12:47:12.516Z,11.77
2017-11-23T12:48:22.504Z,11.78
2017-11-23T12:49:32.233Z,11.81
2017-11-23T12:50:41.754Z,11.76
2017-11-23T12:51:51.746Z,11.76
2017-11-23T12:53:01.477Z,11.73
2017-11-23T12:54:11.175Z,11.78
2017-11-23T12:55:20.896Z,11.86
2017-11-23T12:56:30.612Z,11.78
2017-11-23T12:57:40.318Z,11.86
2017-11-23T12:58:50.044Z,11.85
2017-11-23T13:00:00.017Z,11.89
2017-11-23T13:01:10.016Z,11.95
2017-11-23T13:02:19.480Z,11.93
2017-11-23T13:03:29.453Z,11.96
2017-11-23T13:04:39.216Z,11.99
2017-11-23T13:05:48.944Z,11.97
2017-11-23T13:06:58.411Z,12.05
2017-11-23T13:08:07.852Z,12.07
2017-11-23T13:09:17.313Z,12.03
2017-11-23T13:10:27.284Z,11.99
2017-11-23T13:11:36.996Z,12.05
2017-11-23T13:12:46.715Z,12.03
2017-11-23T13:13:56.185Z,11.96
2017-11-23T13:15:06.121Z,12.03
2017-11-23T13:16:16.183Z,12.03
2017-11-23T13:17:25.629Z,11.99
2017-11-23T13:18:35.618Z,12.05
2017-11-23T13:19:45.622Z,12.08
2017-11-23T13:20:55.597Z,11.97
2017-11-23T13:22:05.569Z,12
2017-11-23T13:23:15.025Z,12
2017-11-23T13:24:24.517Z,12.02
2017-11-23T13:25:33.716Z,11.97
2017-11-23T13:26:43.426Z,12
2017-11-23T13:27:53.151Z,12.03
2017-11-23T13:29:03.144Z,12.03
2017-11-23T13:30:12.072Z,12.08
2017-11-23T13:31:22.055Z,11.96
2017-11-23T13:32:31.505Z,12.02
2017-11-23T13:33:41.487Z,11.93
2017-11-23T13:36:15.895Z,12.02
2017-11-23T13:37:25.613Z,12.02
2017-11-23T13:38:35.369Z,12.03
2017-11-23T13:39:45.503Z,11.97
2017-11-23T13:40:55.217Z,11.97
2017-11-23T13:42:05.015Z,11.97
2017-11-23T13:43:14.738Z,12.15
2017-11-23T13:44:24.491Z,12.08
2017-11-23T13:45:34.463Z,12.1
2017-11-23T13:46:43.919Z,12.08
2017-11-23T13:47:53.638Z,12.11
2017-11-23T13:49:03.097Z,12.12
2017-11-23T13:50:13.106Z,12.11
2017-11-23T13:51:22.852Z,12.11
2017-11-23T13:52:32.861Z,12.05
2017-11-23T13:53:42.576Z,12.12
2017-11-23T13:54:52.312Z,12.1
2017-11-23T13:56:02.068Z,12.1
2017-11-23T13:57:12.088Z,12.23
2017-11-23T13:58:22.076Z,12.08
2017-11-23T13:59:32.076Z,12.32
2017-11-23T14:00:41.801Z,12.28
2017-11-23T14:01:51.826Z,12.25
2017-11-23T14:03:01.865Z,12.11
2017-11-23T14:04:11.868Z,12.17
2017-11-23T14:05:21.870Z,12.23
2017-11-23T14:06:31.931Z,12.29
2017-11-23T14:07:41.659Z,12.23
2017-11-23T14:08:51.651Z,12.23
2017-11-23T14:10:01.645Z,12.29
2017-11-23T14:11:11.366Z,12.32
2017-11-23T14:12:21.088Z,12.45
2017-11-23T14:13:31.063Z,12.62
2017-11-23T14:14:41.053Z,12.72
2017-11-23T14:15:51.042Z,12.84
2017-11-23T14:17:01.047Z,12.86
2017-11-23T14:18:10.490Z,12.94
2017-11-23T14:19:20.478Z,13.05
2017-11-23T14:20:30.218Z,13.09
2017-11-23T14:21:39.954Z,13.17
2017-11-23T14:22:49.415Z,13.3
2017-11-23T14:23:59.130Z,13.26
2017-11-23T14:25:09.122Z,13.3
2017-11-23T14:26:18.856Z,13.21
2017-11-23T14:27:28.910Z,13.17
2017-11-23T14:28:38.646Z,13.16
2017-11-23T14:29:48.374Z,13.11
2017-11-23T14:30:58.347Z,13.11
2017-11-23T14:32:08.132Z,13.09
2017-11-23T14:33:18.144Z,13.11
2017-11-23T14:34:27.863Z,13.12
2017-11-23T14:35:37.624Z,13.08
2017-11-23T14:36:47.377Z,13.08
2017-11-23T14:37:56.840Z,13.02
2017-11-23T14:39:06.827Z,12.93
2017-11-23T14:40:16.271Z,12.91
2017-11-23T14:41:25.744Z,12.87
2017-11-23T14:42:35.460Z,12.94
2017-11-23T14:43:45.454Z,12.91
2017-11-23T14:44:54.909Z,12.9
2017-11-23T14:46:04.615Z,12.9
2017-11-23T14:47:14.608Z,12.91
2017-11-23T14:48:24.608Z,12.83
2017-11-23T14:49:34.598Z,12.84
2017-11-23T14:50:44.067Z,12.87
2017-11-23T14:51:53.799Z,12.75
2017-11-23T14:53:03.812Z,12.78
2017-11-23T14:54:13.545Z,12.75
2017-11-23T14:55:23.553Z,12.63
2017-11-23T14:56:32.495Z,12.65
2017-11-23T14:57:42.274Z,12.68
2017-11-23T14:58:52.268Z,12.65
2017-11-23T15:00:02.018Z,12.62
2017-11-23T15:01:11.741Z,12.5
2017-11-23T15:02:21.202Z,12.51
2017-11-23T15:03:31.198Z,12.57
2017-11-23T15:04:40.924Z,12.48
2017-11-23T15:05:50.662Z,12.53
2017-11-23T15:07:00.407Z,12.53
2017-11-23T15:08:10.140Z,12.5
2017-11-23T15:09:20.151Z,12.51
2017-11-23T15:10:30.136Z,12.51
2017-11-23T15:11:40.129Z,12.4
2017-11-23T15:12:50.113Z,12.43
2017-11-23T15:14:00.107Z,12.43
2017-11-23T15:15:09.847Z,12.37
2017-11-23T15:16:19.040Z,12.39
2017-11-23T15:17:29.061Z,12.43
2017-11-23T15:18:38.536Z,12.39
2017-11-23T15:19:48.241Z,12.29
2017-11-23T15:20:58.254Z,12.43
2017-11-23T15:22:07.993Z,12.3
2017-11-23T15:23:17.712Z,12.32
2017-11-23T15:24:27.441Z,12.25
2017-11-23T15:25:37.167Z,12.26
2017-11-23T15:26:47.147Z,12.2
2017-11-23T15:27:56.860Z,12.17
2017-11-23T15:29:06.584Z,12.14
2017-11-23T15:30:16.575Z,12.11
2017-11-23T15:31:25.793Z,12.18